createdAt,value
2019-01-12T00:01:13.895Z,63.20
2019-01-12T00:05:20.725Z,59.97
2019-01-12T00:09:29.142Z,48.63
2019-01-12T00:13:35.858Z,56.63
2019-01-12T00:17:42.640Z,54.20
2019-01-12T00:21:49.010Z,57.30
2019-01-12T00:25:55.993Z,64.73
2019-01-12T00:30:04.265Z,63.67
2019-01-12T00:34:11.128Z,61.10
2019-01-12T00:38:17.492Z,50.03
2019-01-12T00:42:28.581Z,45.27
2019-01-12T00:46:37.198Z,32.00
2019-01-12T00:50:46.175Z,66.23
2019-01-12T00:54:52.561Z,47.73
2019-01-12T00:58:59.090Z,59.37
2019-01-12T01:03:05.630Z,56.33
2019-01-12T01:07:12.321Z,46.50
2019-01-12T01:11:18.697Z,51.03
2019-01-12T01:15:26.752Z,37.50
2019-01-12T01:19:33.117Z,38.97
2019-01-12T01:23:39.672Z,41.03
2019-01-12T01:27:46.073Z,41.30
2019-01-12T01:31:53.983Z,49.10
2019-01-12T01:36:00.435Z,42.80
2019-01-12T01:40:08.730Z,43.43
2019-01-12T01:44:15.856Z,36.23
2019-01-12T01:48:23.675Z,27.20
2019-01-12T01:52:30.072Z,45.03
2019-01-12T01:56:36.567Z,24.63
2019-01-12T02:00:42.864Z,24.17
2019-01-12T02:04:49.961Z,28.03
2019-01-12T02:08:56.279Z,27.13
2019-01-12T02:13:02.786Z,33.00
2019-01-12T02:17:09.045Z,33.27
2019-01-12T02:21:18.000Z,34.33
2019-01-12T02:25:24.375Z,34.13
2019-01-12T02:29:30.882Z,34.73
2019-01-12T02:33:37.485Z,24.07
2019-01-12T02:37:45.549Z,30.43
2019-01-12T02:41:51.822Z,23.43
2019-01-12T02:45:58.361Z,33.87
2019-01-12T02:50:07.579Z,24.47
2019-01-12T02:54:14.529Z,38.87
2019-01-12T02:58:21.099Z,23.17
2019-01-12T03:02:27.616Z,35.97
2019-01-12T03:06:33.987Z,39.87
2019-01-12T03:10:41.813Z,29.20
2019-01-12T03:14:48.093Z,27.07
2019-01-12T03:18:54.694Z,27.70
2019-01-12T03:23:01.000Z,32.17
2019-01-12T03:27:09.050Z,32.40
2019-01-12T03:31:15.511Z,29.20
2019-01-12T03:35:22.019Z,30.07
2019-01-12T03:39:28.296Z,33.37
2019-01-12T03:43:37.239Z,37.23
2019-01-12T03:47:43.574Z,32.50
2019-01-12T03:51:51.061Z,34.13
2019-01-12T03:55:57.353Z,30.47
2019-01-12T04:00:06.600Z,32.37
2019-01-12T04:04:13.370Z,34.67
2019-01-12T04:08:19.775Z,32.97
2019-01-12T04:12:26.233Z,25.70
2019-01-12T04:16:33.399Z,34.20
2019-01-12T04:20:39.826Z,32.00
2019-01-12T04:24:47.858Z,39.60
2019-01-12T04:28:54.437Z,37.20
2019-01-12T04:33:02.100Z,35.07
2019-01-12T04:37:08.549Z,33.53
2019-01-12T04:41:14.937Z,30.03
2019-01-12T04:45:21.541Z,40.47
2019-01-12T04:49:29.310Z,39.30
2019-01-12T04:53:38.229Z,37.97
2019-01-12T04:57:44.643Z,40.00
2019-01-12T05:01:51.077Z,30.33
2019-01-12T05:05:59.094Z,33.57
2019-01-12T05:10:07.344Z,36.17
2019-01-12T05:14:13.689Z,29.23
2019-01-12T05:18:20.165Z,34.60
2019-01-12T05:22:27.837Z,34.97
2019-01-12T05:26:34.408Z,31.77
2019-01-12T05:30:40.744Z,31.90
2019-01-12T05:34:47.288Z,30.67
2019-01-12T05:38:54.795Z,40.53
2019-01-12T05:43:01.424Z,31.77
2019-01-12T05:47:07.708Z,25.60
2019-01-12T05:51:14.178Z,33.33
2019-01-12T05:55:21.788Z,34.43
2019-01-12T05:59:28.242Z,35.90
2019-01-12T06:03:34.627Z,38.97
2019-01-12T06:07:41.127Z,26.77
2019-01-12T06:11:49.042Z,34.13
2019-01-12T06:15:55.580Z,32.17
2019-01-12T06:20:02.443Z,30.53
2019-01-12T06:24:08.709Z,35.50
2019-01-12T06:28:17.831Z,38.00
2019-01-12T06:32:24.204Z,37.53
2019-01-12T06:36:30.902Z,30.67
2019-01-12T06:40:37.248Z,31.27
2019-01-12T06:44:44.361Z,44.23
2019-01-12T06:48:53.481Z,49.47
2019-01-12T06:53:00.133Z,35.40
2019-01-12T06:57:07.363Z,37.50
2019-01-12T07:01:14.992Z,36.93
2019-01-12T07:05:21.391Z,34.03
2019-01-12T07:09:28.409Z,42.10
2019-01-12T07:13:34.735Z,35.73
2019-01-12T07:17:43.006Z,21.63
2019-01-12T07:21:49.388Z,37.33
2019-01-12T07:25:56.772Z,34.07
2019-01-12T07:30:03.125Z,25.20
2019-01-12T07:34:11.091Z,31.87
2019-01-12T07:38:17.614Z,42.87
2019-01-12T07:42:24.332Z,32.33
2019-01-12T07:46:32.142Z,40.67
2019-01-12T07:50:38.717Z,48.63
2019-01-12T07:54:45.029Z,46.70
2019-01-12T07:58:52.547Z,45.30
2019-01-12T08:02:58.824Z,38.43
2019-01-12T08:07:06.396Z,42.70
2019-01-12T08:11:12.834Z,46.07
2019-01-12T08:15:19.568Z,41.57
2019-01-12T08:19:25.898Z,39.00
2019-01-12T08:23:32.565Z,39.20
2019-01-12T08:27:39.839Z,47.70
2019-01-12T08:31:46.431Z,43.50
2019-01-12T08:35:52.781Z,46.90
2019-01-12T08:40:00.217Z,34.50
2019-01-12T08:44:06.559Z,63.33
2019-01-12T08:48:13.186Z,57.17
2019-01-12T08:52:19.466Z,46.83
2019-01-12T08:56:27.153Z,56.13
2019-01-12T09:00:34.591Z,62.70
2019-01-12T09:04:43.609Z,56.77
2019-01-12T09:08:49.032Z,47.87
2019-01-12T09:12:58.201Z,54.90
2019-01-12T09:17:05.508Z,51.77
2019-01-12T09:21:12.095Z,50.10
2019-01-12T09:25:18.379Z,42.93
2019-01-12T09:29:26.636Z,40.90
2019-01-12T09:33:32.963Z,47.23
2019-01-12T09:37:39.645Z,50.47
2019-01-12T09:41:45.897Z,55.33
2019-01-12T09:45:53.677Z,53.97
2019-01-12T09:50:01.750Z,38.53
2019-01-12T09:54:08.542Z,50.77
2019-01-12T09:58:14.844Z,52.57
2019-01-12T10:02:23.213Z,52.63
2019-01-12T10:06:29.525Z,59.83
2019-01-12T10:10:36.248Z,55.73
2019-01-12T10:14:42.483Z,47.23
2019-01-12T10:18:51.346Z,65.20
2019-01-12T10:22:57.794Z,56.67
2019-01-12T10:27:04.697Z,56.90
2019-01-12T10:31:10.978Z,57.33
2019-01-12T10:35:18.780Z,54.43
2019-01-12T10:39:25.194Z,57.23
2019-01-12T10:43:34.466Z,48.27
2019-01-12T10:47:40.960Z,67.77
2019-01-12T10:51:48.705Z,58.13
2019-01-12T10:55:55.094Z,49.80
2019-01-12T11:00:02.452Z,49.97
2019-01-12T11:04:12.034Z,53.57
2019-01-12T11:08:18.625Z,53.10
2019-01-12T11:12:28.515Z,47.80
2019-01-12T11:16:34.921Z,41.43
2019-01-12T11:20:41.190Z,35.33
2019-01-12T11:24:48.094Z,31.90
2019-01-12T11:28:54.523Z,45.37
2019-01-12T11:33:01.203Z,31.67
2019-01-12T11:37:09.209Z,39.83
2019-01-12T11:41:16.512Z,38.73
2019-01-12T11:45:22.850Z,42.43
2019-01-12T11:49:29.775Z,40.73
2019-01-12T11:53:36.057Z,47.90
2019-01-12T11:57:44.246Z,36.63
2019-01-12T12:01:50.793Z,35.40
2019-01-12T12:05:59.479Z,41.33
2019-01-12T12:10:06.751Z,43.40
2019-01-12T12:14:16.763Z,42.83
2019-01-12T12:18:23.098Z,43.43
2019-01-12T12:22:29.604Z,50.90
2019-01-12T12:26:37.638Z,49.27
2019-01-12T12:30:44.493Z,30.93
2019-01-12T12:34:50.857Z,46.90
2019-01-12T12:38:57.355Z,41.00
2019-01-12T12:43:03.635Z,38.40
2019-01-12T12:47:11.226Z,41.87
2019-01-12T12:51:18.608Z,56.97
2019-01-12T12:55:25.564Z,44.03
2019-01-12T12:59:31.877Z,47.83
2019-01-12T13:03:39.494Z,29.90
2019-01-12T13:07:47.796Z,54.50
2019-01-12T13:11:54.849Z,49.07
2019-01-12T13:16:02.125Z,45.77
2019-01-12T13:20:11.432Z,46.97
2019-01-12T13:24:20.802Z,47.60
2019-01-12T13:28:27.297Z,49.77
2019-01-12T13:32:33.576Z,53.23
2019-01-12T13:36:42.029Z,49.63
2019-01-12T13:40:49.916Z,49.73
2019-01-12T13:44:56.688Z,46.37
2019-01-12T13:49:03.770Z,51.87
2019-01-12T13:53:10.820Z,45.77
2019-01-12T13:57:19.888Z,42.53
2019-01-12T14:01:26.425Z,49.53
2019-01-12T14:05:32.800Z,38.13
2019-01-12T14:09:41.073Z,53.03
2019-01-12T14:13:47.494Z,45.67
2019-01-12T14:17:54.528Z,58.13
2019-01-12T14:22:00.852Z,53.17
2019-01-12T14:26:07.945Z,50.93
2019-01-12T14:30:16.168Z,46.87
2019-01-12T14:34:24.029Z,42.77
2019-01-12T14:38:30.327Z,47.17
2019-01-12T14:42:38.361Z,55.43
2019-01-12T14:46:44.738Z,40.50
2019-01-12T14:50:51.509Z,49.80
2019-01-12T14:54:57.822Z,47.83
2019-01-12T14:59:05.420Z,59.50
2019-01-12T15:03:13.539Z,46.57
2019-01-12T15:07:20.108Z,57.63
2019-01-12T15:11:29.036Z,60.80
2019-01-12T15:15:36.644Z,50.10
2019-01-12T15:19:43.062Z,53.97
2019-01-12T15:23:51.167Z,50.93
2019-01-12T15:27:57.475Z,57.60
2019-01-12T15:32:04.730Z,57.33
2019-01-12T15:36:11.000Z,44.80
2019-01-12T15:40:18.332Z,46.70
2019-01-12T15:44:24.640Z,55.37
2019-01-12T15:48:31.361Z,65.27
2019-01-12T15:52:38.677Z,66.03
2019-01-12T15:56:45.158Z,62.67
2019-01-12T16:00:51.640Z,78.97
2019-01-12T16:04:59.208Z,78.67
2019-01-12T16:09:08.478Z,72.00
2019-01-12T16:13:15.693Z,58.73
2019-01-12T16:17:22.065Z,62.83
2019-01-12T16:21:32.726Z,61.20
2019-01-12T16:25:39.110Z,61.63
2019-01-12T16:29:45.679Z,75.77
2019-01-12T16:33:51.989Z,70.77
2019-01-12T16:37:59.939Z,62.60
2019-01-12T16:42:06.226Z,66.17
2019-01-12T16:46:12.763Z,64.03
2019-01-12T16:50:23.588Z,69.53
2019-01-12T16:54:30.669Z,68.77
2019-01-12T16:58:37.035Z,77.87
2019-01-12T17:02:43.546Z,64.17
2019-01-12T17:06:50.910Z,68.17
2019-01-12T17:10:59.191Z,56.23
2019-01-12T17:15:11.945Z,61.97
2019-01-12T17:19:18.397Z,63.27
2019-01-12T17:23:24.784Z,63.03
2019-01-12T17:27:33.699Z,63.93
2019-01-12T17:31:40.109Z,76.43
2019-01-12T17:35:46.725Z,68.40
2019-01-12T17:39:55.998Z,61.93
2019-01-12T17:44:03.116Z,77.10
2019-01-12T17:48:09.448Z,62.37
2019-01-12T17:52:16.703Z,58.47
2019-01-12T17:56:23.018Z,68.63
2019-01-12T18:00:40.128Z,64.60
2019-01-12T18:04:46.597Z,61.67
2019-01-12T18:08:53.118Z,69.23
2019-01-12T18:12:59.419Z,67.83
2019-01-12T18:17:08.991Z,72.77
2019-01-12T18:21:15.380Z,82.20
2019-01-12T18:25:24.443Z,76.70
2019-01-12T18:29:30.736Z,80.13
2019-01-12T18:33:39.182Z,69.27
2019-01-12T18:37:45.703Z,79.07
2019-01-12T18:41:52.172Z,80.93
2019-01-12T18:45:58.497Z,88.10
2019-01-12T18:50:08.171Z,99.67
2019-01-12T18:54:14.446Z,71.97
2019-01-12T18:58:20.958Z,86.87
2019-01-12T19:02:27.247Z,71.17
2019-01-12T19:06:34.626Z,75.70
2019-01-12T19:10:41.705Z,69.87
2019-01-12T19:14:48.193Z,74.90
2019-01-12T19:18:55.027Z,71.13
2019-01-12T19:23:02.271Z,88.93
2019-01-12T19:27:08.601Z,82.97
2019-01-12T19:31:15.092Z,80.73
2019-01-12T19:35:21.477Z,87.70
2019-01-12T19:39:28.139Z,91.97
2019-01-12T19:43:34.635Z,77.33
2019-01-12T19:47:44.702Z,81.37
2019-01-12T19:51:50.992Z,72.03
2019-01-12T19:56:00.892Z,72.93
2019-01-12T20:00:10.776Z,84.33
2019-01-12T20:04:18.980Z,68.70
2019-01-12T20:08:25.269Z,75.27
2019-01-12T20:12:32.665Z,63.03
2019-01-12T20:16:39.092Z,67.33
2019-01-12T20:20:50.168Z,69.60
2019-01-12T20:24:57.467Z,68.10
2019-01-12T20:29:05.167Z,68.57
2019-01-12T20:33:43.156Z,63.80
2019-01-12T20:38:27.920Z,68.87
2019-01-12T20:43:12.484Z,60.67
2019-01-12T20:47:43.851Z,67.20
2019-01-12T20:52:25.599Z,60.10
2019-01-12T20:57:00.057Z,60.40
2019-01-12T21:02:11.874Z,62.87
2019-01-12T21:06:32.783Z,54.50
2019-01-12T21:11:04.036Z,53.10
2019-01-12T21:15:22.121Z,43.57
2019-01-12T21:19:28.704Z,51.03
2019-01-12T21:23:37.720Z,43.97
2019-01-12T21:27:46.550Z,51.60
2019-01-12T21:31:52.831Z,45.70
2019-01-12T21:35:59.702Z,43.27
2019-01-12T21:40:07.175Z,43.53
2019-01-12T21:44:14.729Z,42.77
2019-01-12T21:48:22.181Z,46.13
2019-01-12T21:52:28.767Z,42.87
2019-01-12T21:56:36.689Z,46.37
2019-01-12T22:00:44.458Z,47.83
2019-01-12T22:04:54.162Z,51.63
2019-01-12T22:09:00.694Z,50.20
2019-01-12T22:13:07.195Z,51.23
2019-01-12T22:17:14.448Z,48.13
2019-01-12T22:21:22.971Z,52.43
2019-01-12T22:25:31.076Z,53.63
2019-01-12T22:29:37.440Z,56.87
2019-01-12T22:33:45.467Z,62.33
2019-01-12T22:37:51.808Z,61.47
2019-01-12T22:41:58.504Z,56.80
2019-01-12T22:46:04.888Z,72.80
2019-01-12T22:50:13.500Z,64.33
2019-01-12T22:54:19.818Z,62.83
2019-01-12T22:58:26.511Z,57.27
2019-01-12T23:02:32.884Z,57.13
2019-01-12T23:06:39.800Z,81.67
2019-01-12T23:10:46.252Z,63.43
2019-01-12T23:14:52.668Z,68.17
2019-01-12T23:18:59.221Z,47.60
2019-01-12T23:23:06.579Z,72.60
2019-01-12T23:27:13.326Z,72.50
2019-01-12T23:31:19.926Z,66.47
2019-01-12T23:35:26.245Z,66.40
2019-01-12T23:39:33.245Z,68.57
2019-01-12T23:43:39.556Z,70.43
2019-01-12T23:47:46.223Z,60.63
2019-01-12T23:51:52.494Z,60.77
2019-01-12T23:56:02.500Z,65.00
